createdAt,value
2019-04-09T00:01:10.102Z,16.37
2019-04-09T00:03:38.094Z,16.03
2019-04-09T00:06:05.631Z,14.23
2019-04-09T00:08:33.690Z,18.40
2019-04-09T00:11:01.601Z,15.87
2019-04-09T00:13:29.724Z,15.40
2019-04-09T00:15:58.445Z,16.57
2019-04-09T00:18:25.712Z,19.97
2019-04-09T00:20:53.445Z,15.33
2019-04-09T00:23:20.891Z,18.50
2019-04-09T00:25:48.708Z,21.07
2019-04-09T00:28:16.194Z,17.30
2019-04-09T00:30:45.407Z,18.07
2019-04-09T00:33:13.324Z,18.37
2019-04-09T00:35:41.966Z,17.33
2019-04-09T00:38:10.237Z,17.73
2019-04-09T00:40:37.914Z,18.33
2019-04-09T00:43:06.043Z,18.00
2019-04-09T00:45:33.959Z,18.87
2019-04-09T00:48:00.975Z,19.87
2019-04-09T00:50:28.537Z,20.17
2019-04-09T00:52:56.017Z,16.17
2019-04-09T00:55:24.375Z,18.90
2019-04-09T00:57:51.868Z,16.60
2019-04-09T01:00:21.370Z,19.10
2019-04-09T01:02:49.397Z,18.60
2019-04-09T01:05:17.414Z,18.90
2019-04-09T01:07:45.486Z,17.07
2019-04-09T01:10:12.722Z,22.67
2019-04-09T01:12:41.026Z,19.93
2019-04-09T01:15:08.742Z,18.30
2019-04-09T01:17:35.920Z,17.37
2019-04-09T01:20:04.864Z,17.63
2019-04-09T01:22:32.904Z,16.33
2019-04-09T01:25:00.347Z,20.20
2019-04-09T01:27:30.817Z,19.17
2019-04-09T01:29:59.807Z,17.20
2019-04-09T01:32:31.346Z,18.33
2019-04-09T01:35:03.419Z,18.90
2019-04-09T01:40:24.417Z,18.87
2019-04-09T01:42:54.517Z,17.40
2019-04-09T01:45:31.925Z,17.20
2019-04-09T01:48:05.372Z,16.40
2019-04-09T01:50:39.630Z,16.00
2019-04-09T01:53:12.400Z,14.43
2019-04-09T01:55:43.870Z,14.57
2019-04-09T02:01:05.961Z,15.73
2019-04-09T02:03:36.171Z,12.87
2019-04-09T02:06:10.346Z,16.17
2019-04-09T02:08:44.562Z,14.77
2019-04-09T02:11:13.095Z,13.17
2019-04-09T02:13:40.459Z,15.57
2019-04-09T02:16:10.563Z,15.03
2019-04-09T02:18:52.971Z,13.90
2019-04-09T02:24:15.874Z,12.80
2019-04-09T02:26:48.153Z,14.40
2019-04-09T02:29:18.450Z,12.67
2019-04-09T02:31:47.292Z,11.40
2019-04-09T02:34:14.982Z,11.83
2019-04-09T02:36:45.194Z,12.03
2019-04-09T02:39:14.862Z,12.70
2019-04-09T02:41:43.259Z,11.77
2019-04-09T02:44:14.733Z,14.80
2019-04-09T02:46:58.988Z,17.27
2019-04-09T02:49:37.378Z,10.33
2019-04-09T02:52:11.373Z,12.50
2019-04-09T02:57:32.500Z,12.55
2019-04-09T03:00:01.202Z,10.63
2019-04-09T03:02:28.794Z,11.40
2019-04-09T03:04:58.110Z,10.40
2019-04-09T03:07:26.503Z,13.50
2019-04-09T03:09:57.556Z,11.13
2019-04-09T03:12:27.200Z,10.37
2019-04-09T03:17:50.651Z,11.25
2019-04-09T03:20:19.051Z,9.10
2019-04-09T03:22:51.768Z,10.73
2019-04-09T03:25:34.620Z,9.33
2019-04-09T03:28:08.188Z,10.63
2019-04-09T03:30:32.807Z,10.60
2019-04-09T03:33:07.190Z,9.03
2019-04-09T03:35:36.420Z,9.77
2019-04-09T03:38:06.078Z,9.27
2019-04-09T03:40:38.207Z,9.77
2019-04-09T03:43:07.938Z,9.93
2019-04-09T03:45:53.510Z,8.83
2019-04-09T03:48:24.315Z,8.47
2019-04-09T03:51:05.742Z,8.50
2019-04-09T03:53:38.068Z,10.20
2019-04-09T03:56:05.600Z,9.53
2019-04-09T03:58:48.894Z,9.53
2019-04-09T04:04:13.143Z,11.95
2019-04-09T04:06:46.381Z,11.30
2019-04-09T04:09:18.657Z,10.13
2019-04-09T04:11:45.583Z,12.37
2019-04-09T04:14:16.313Z,9.90
2019-04-09T04:17:02.200Z,9.90
2019-04-09T04:19:31.339Z,8.73
2019-04-09T04:22:05.513Z,9.40
2019-04-09T04:24:35.227Z,12.50
2019-04-09T04:27:10.103Z,9.52
2019-04-09T04:29:48.378Z,10.53
2019-04-09T04:32:36.585Z,9.73
2019-04-09T04:35:15.845Z,9.77
2019-04-09T04:37:47.386Z,9.27
2019-04-09T04:40:15.595Z,12.07
2019-04-09T04:42:58.953Z,9.50
2019-04-09T04:45:36.352Z,10.97
2019-04-09T04:48:08.047Z,10.53
2019-04-09T04:50:36.510Z,10.37
2019-04-09T04:53:05.069Z,8.50
2019-04-09T04:58:41.331Z,11.95
2019-04-09T05:01:09.982Z,11.17
2019-04-09T05:06:52.899Z,9.30
2019-04-09T05:09:19.311Z,9.87
2019-04-09T05:11:48.675Z,12.20
2019-04-09T05:14:25.831Z,9.37
2019-04-09T05:16:54.825Z,10.47
2019-04-09T05:19:38.188Z,8.50
2019-04-09T05:22:06.828Z,9.47
2019-04-09T05:24:36.614Z,8.50
2019-04-09T05:27:17.000Z,8.50
2019-04-09T05:29:44.882Z,9.83
2019-04-09T05:32:19.913Z,8.70
2019-04-09T05:34:57.401Z,10.67
2019-04-09T05:37:30.979Z,8.90
2019-04-09T05:40:00.711Z,9.23
2019-04-09T05:42:43.463Z,8.13
2019-04-09T05:48:07.378Z,11.12
2019-04-09T05:50:34.194Z,12.30
2019-04-09T05:53:14.693Z,8.53
2019-04-09T05:55:45.177Z,8.30
2019-04-09T05:58:27.754Z,8.23
2019-04-09T06:00:59.055Z,10.87
2019-04-09T06:03:27.800Z,7.53
2019-04-09T06:05:55.364Z,9.87
2019-04-09T06:08:24.882Z,8.10
2019-04-09T06:10:52.080Z,8.20
2019-04-09T06:13:22.449Z,7.20
2019-04-09T06:15:49.960Z,7.43
2019-04-09T06:18:18.290Z,9.80
2019-04-09T06:20:46.623Z,10.83
2019-04-09T06:23:14.719Z,8.80
2019-04-09T06:25:41.877Z,7.53
2019-04-09T06:28:08.486Z,9.60
2019-04-09T06:30:36.024Z,8.53
2019-04-09T06:33:12.120Z,11.57
2019-04-09T06:35:41.266Z,8.40
2019-04-09T06:41:10.934Z,10.05
2019-04-09T06:43:44.234Z,9.23
2019-04-09T06:46:19.942Z,9.10
2019-04-09T06:48:52.018Z,7.33
2019-04-09T06:51:29.602Z,7.67
2019-04-09T06:53:48.117Z,7.53
2019-04-09T06:56:19.786Z,9.70
2019-04-09T06:58:58.747Z,8.17
2019-04-09T07:01:32.997Z,7.33
2019-04-09T07:04:02.908Z,7.33
2019-04-09T07:06:34.581Z,6.70
2019-04-09T07:09:02.111Z,7.90
2019-04-09T07:11:33.585Z,7.87
2019-04-09T07:14:16.050Z,9.87
2019-04-09T07:16:49.778Z,7.23
2019-04-09T07:19:22.997Z,7.13
2019-04-09T07:21:50.868Z,6.33
2019-04-09T07:24:18.239Z,6.67
2019-04-09T07:27:01.490Z,8.37
2019-04-09T07:29:43.656Z,7.77
2019-04-09T07:32:03.963Z,7.77
2019-04-09T07:34:37.438Z,9.17
2019-04-09T07:37:07.593Z,7.80
2019-04-09T07:39:37.747Z,6.67
2019-04-09T07:45:08.215Z,8.50
2019-04-09T07:47:36.700Z,7.33
2019-04-09T07:53:17.933Z,8.45
2019-04-09T07:56:03.031Z,7.10
2019-04-09T07:58:31.498Z,7.60
2019-04-09T08:01:14.810Z,7.33
2019-04-09T08:06:41.590Z,8.77
2019-04-09T08:09:12.671Z,6.70
2019-04-09T08:11:42.458Z,6.17
2019-04-09T08:14:14.276Z,8.23
2019-04-09T08:16:44.479Z,8.13
2019-04-09T08:19:19.970Z,7.03
2019-04-09T08:21:59.146Z,6.77
2019-04-09T08:24:34.363Z,8.63
2019-04-09T08:27:17.614Z,9.73
2019-04-09T08:29:46.800Z,6.33
2019-04-09T08:35:11.618Z,9.15
2019-04-09T08:38:00.645Z,6.77
2019-04-09T08:40:36.270Z,7.40
2019-04-09T08:43:07.966Z,7.30
2019-04-09T08:45:52.366Z,6.13
2019-04-09T08:51:17.387Z,7.93
2019-04-09T08:54:02.439Z,6.30
2019-04-09T08:56:30.010Z,6.67
2019-04-09T09:02:11.550Z,7.90
2019-04-09T09:04:29.814Z,6.30
2019-04-09T09:06:58.803Z,8.57
2019-04-09T09:09:31.778Z,6.47
2019-04-09T09:12:03.014Z,8.20
2019-04-09T09:14:32.449Z,7.80
2019-04-09T09:17:05.780Z,8.13
2019-04-09T09:19:33.346Z,8.20
2019-04-09T09:22:08.815Z,6.27
2019-04-09T09:27:36.971Z,7.93
2019-04-09T09:30:15.675Z,7.03
2019-04-09T09:32:46.543Z,6.07
2019-04-09T09:35:13.895Z,7.37
2019-04-09T09:37:58.098Z,8.67
2019-04-09T09:40:38.956Z,6.60
2019-04-09T09:43:06.569Z,6.27
2019-04-09T09:45:38.171Z,4.63
2019-04-09T09:48:05.646Z,6.50
2019-04-09T09:50:40.220Z,5.90
2019-04-09T09:53:07.866Z,10.47
2019-04-09T09:55:35.635Z,6.43
2019-04-09T09:58:13.415Z,7.67
2019-04-09T10:00:40.441Z,6.33
2019-04-09T10:03:11.009Z,6.73
2019-04-09T10:05:40.948Z,7.37
2019-04-09T10:08:16.168Z,7.00
2019-04-09T10:10:40.755Z,7.20
2019-04-09T10:13:09.128Z,7.13
2019-04-09T10:15:57.186Z,7.00
2019-04-09T10:18:56.353Z,5.90
2019-04-09T10:21:25.450Z,7.22
2019-04-09T10:24:07.479Z,6.27
2019-04-09T10:26:36.531Z,7.93
2019-04-09T10:29:21.815Z,6.37
2019-04-09T10:31:54.315Z,5.63
2019-04-09T10:34:39.677Z,6.47
2019-04-09T10:37:19.603Z,8.93
2019-04-09T10:39:45.314Z,8.63
2019-04-09T10:42:29.199Z,8.63
2019-04-09T10:44:59.969Z,8.30
2019-04-09T10:47:27.471Z,7.47
2019-04-09T10:52:58.743Z,7.60
2019-04-09T10:55:44.621Z,7.50
2019-04-09T10:58:20.010Z,8.20
2019-04-09T11:00:47.225Z,7.90
2019-04-09T11:05:59.845Z,7.47
2019-04-09T11:08:23.821Z,9.13
2019-04-09T11:11:06.709Z,8.73
2019-04-09T11:13:34.638Z,7.93
2019-04-09T11:16:04.434Z,7.57
2019-04-09T11:18:47.893Z,7.00
2019-04-09T11:21:17.859Z,8.43
2019-04-09T11:23:53.796Z,6.83
2019-04-09T11:26:19.650Z,8.70
2019-04-09T11:29:02.659Z,8.63
2019-04-09T11:34:52.139Z,8.00
2019-04-09T11:37:21.532Z,7.40
2019-04-09T11:39:50.323Z,10.23
2019-04-09T11:42:20.485Z,7.67
2019-04-09T11:44:55.400Z,6.67
2019-04-09T11:47:25.862Z,7.27
2019-04-09T11:49:57.119Z,8.33
2019-04-09T11:52:28.626Z,7.43
2019-04-09T11:55:01.953Z,7.50
2019-04-09T11:57:35.428Z,5.83
2019-04-09T12:00:07.830Z,6.68
2019-04-09T12:02:39.974Z,7.27
2019-04-09T12:05:10.881Z,7.27
2019-04-09T12:07:52.460Z,6.23
2019-04-09T12:10:18.917Z,6.33
2019-04-09T12:12:48.210Z,6.00
2019-04-09T12:15:21.698Z,7.07
2019-04-09T12:20:47.273Z,7.68
2019-04-09T12:23:16.395Z,6.10
2019-04-09T12:25:58.741Z,7.67
2019-04-09T12:28:42.050Z,8.60
2019-04-09T12:31:12.093Z,7.77
2019-04-09T12:33:44.466Z,7.20
2019-04-09T12:36:14.400Z,8.87
2019-04-09T12:38:59.825Z,7.47
2019-04-09T12:41:46.877Z,6.63
2019-04-09T12:44:33.932Z,7.23
2019-04-09T12:47:15.686Z,8.60
2019-04-09T12:49:43.949Z,6.40
2019-04-09T12:52:13.019Z,8.00
2019-04-09T12:54:43.565Z,7.33
2019-04-09T12:57:17.558Z,7.12
2019-04-09T12:59:47.564Z,6.37
2019-04-09T13:02:28.009Z,8.20
2019-04-09T13:04:54.637Z,8.10
2019-04-09T13:10:15.898Z,7.72
2019-04-09T13:12:49.221Z,7.70
2019-04-09T13:15:22.648Z,6.93
2019-04-09T13:17:54.846Z,8.97
2019-04-09T13:20:22.326Z,7.90
2019-04-09T13:22:50.101Z,6.03
2019-04-09T13:25:24.814Z,6.53
2019-04-09T13:28:03.321Z,5.83
2019-04-09T13:30:36.364Z,7.10
2019-04-09T13:33:07.213Z,9.43
2019-04-09T13:38:49.959Z,7.03
2019-04-09T13:41:26.123Z,6.83
2019-04-09T13:43:58.616Z,6.77
2019-04-09T13:46:35.261Z,8.23
2019-04-09T13:49:07.141Z,6.87
2019-04-09T13:51:36.134Z,8.47
2019-04-09T13:54:05.116Z,8.32
2019-04-09T13:56:32.778Z,7.30
2019-04-09T13:59:01.675Z,7.00
2019-04-09T14:01:28.577Z,7.10
2019-04-09T14:03:57.163Z,6.70
2019-04-09T14:06:25.414Z,7.43
2019-04-09T14:08:53.222Z,8.93
2019-04-09T14:11:20.781Z,6.60
2019-04-09T14:13:49.980Z,8.73
2019-04-09T14:16:18.646Z,7.37
2019-04-09T14:18:46.416Z,7.37
2019-04-09T14:21:14.039Z,6.03
2019-04-09T14:23:42.312Z,6.80
2019-04-09T14:26:09.804Z,6.60
2019-04-09T14:28:37.635Z,7.23
2019-04-09T14:31:08.339Z,7.70
2019-04-09T14:33:33.149Z,6.30
2019-04-09T14:36:00.290Z,8.37
2019-04-09T14:38:28.263Z,7.00
2019-04-09T14:40:56.432Z,8.77
2019-04-09T14:43:24.436Z,8.63
2019-04-09T14:45:51.061Z,10.13
2019-04-09T14:48:19.247Z,7.60
2019-04-09T14:50:46.805Z,8.10
2019-04-09T14:53:14.526Z,6.57
2019-04-09T14:55:42.811Z,8.47
2019-04-09T14:58:09.370Z,6.73
2019-04-09T15:00:40.330Z,8.47
2019-04-09T15:03:15.071Z,6.77
2019-04-09T15:05:34.726Z,8.07
2019-04-09T15:08:02.350Z,6.70
2019-04-09T15:10:29.747Z,8.37
2019-04-09T15:12:58.457Z,6.97
2019-04-09T15:15:24.913Z,8.20
2019-04-09T15:17:54.524Z,8.40
2019-04-09T15:20:22.191Z,6.33
2019-04-09T15:22:49.847Z,6.57
2019-04-09T15:25:18.192Z,9.60
2019-04-09T15:27:46.414Z,6.10
2019-04-09T15:30:14.855Z,7.30
2019-04-09T15:32:41.790Z,7.00
2019-04-09T15:35:09.965Z,7.00
2019-04-09T15:37:37.615Z,7.67
2019-04-09T15:40:05.190Z,7.12
2019-04-09T15:42:34.266Z,8.10
2019-04-09T15:45:01.100Z,8.13
2019-04-09T15:47:29.541Z,7.40
2019-04-09T15:49:56.945Z,6.83
2019-04-09T15:52:24.454Z,6.47
2019-04-09T15:54:52.800Z,7.77
2019-04-09T15:57:21.552Z,6.93
2019-04-09T15:59:49.110Z,7.13
2019-04-09T16:02:16.443Z,7.53
2019-04-09T16:04:44.796Z,9.40
2019-04-09T16:07:13.349Z,6.23
2019-04-09T16:09:39.827Z,6.67
2019-04-09T16:12:07.833Z,6.00
2019-04-09T16:14:36.378Z,7.27
2019-04-09T16:17:03.712Z,7.50
2019-04-09T16:19:31.817Z,8.27
2019-04-09T16:21:59.515Z,9.70
2019-04-09T16:24:27.637Z,9.10
2019-04-09T16:26:54.229Z,10.53
2019-04-09T16:29:22.729Z,8.20
2019-04-09T16:31:51.134Z,8.03
2019-04-09T16:34:18.508Z,8.47
2019-04-09T16:36:58.702Z,8.43
2019-04-09T16:39:14.437Z,7.37
2019-04-09T16:41:41.943Z,8.33
2019-04-09T16:44:09.542Z,9.10
2019-04-09T16:46:37.066Z,8.17
2019-04-09T16:49:04.822Z,8.50
2019-04-09T16:51:32.021Z,8.17
2019-04-09T16:54:00.266Z,8.63
2019-04-09T16:56:27.799Z,9.23
2019-04-09T16:58:56.205Z,8.57
2019-04-09T17:01:23.690Z,8.97
2019-04-09T17:03:53.040Z,9.47
2019-04-09T17:06:20.520Z,8.47
2019-04-09T17:08:48.011Z,8.70
2019-04-09T17:11:15.574Z,8.87
2019-04-09T17:13:43.231Z,7.20
2019-04-09T17:16:11.813Z,8.67
2019-04-09T17:18:38.474Z,7.73
2019-04-09T17:21:06.854Z,7.57
2019-04-09T17:23:33.798Z,8.00
2019-04-09T17:26:01.845Z,8.47
2019-04-09T17:28:29.761Z,7.90
2019-04-09T17:30:56.599Z,7.43
2019-04-09T17:33:24.694Z,10.10
2019-04-09T17:35:52.567Z,12.03
2019-04-09T17:38:20.209Z,7.80
2019-04-09T17:40:48.024Z,8.20
2019-04-09T17:43:15.526Z,9.40
2019-04-09T17:45:42.815Z,8.13
2019-04-09T17:48:11.597Z,9.80
2019-04-09T17:50:39.156Z,7.50
2019-04-09T17:53:06.665Z,7.30
2019-04-09T17:55:34.994Z,10.00
2019-04-09T17:58:02.530Z,10.30
2019-04-09T18:00:30.998Z,8.67
2019-04-09T18:02:58.587Z,8.40
2019-04-09T18:05:26.429Z,9.80
2019-04-09T18:07:54.665Z,10.27
2019-04-09T18:10:22.542Z,9.17
2019-04-09T18:12:51.604Z,7.83
2019-04-09T18:15:20.883Z,8.63
2019-04-09T18:17:47.455Z,12.10
2019-04-09T18:20:15.137Z,9.23
2019-04-09T18:22:43.317Z,9.10
2019-04-09T18:25:11.488Z,8.97
2019-04-09T18:27:38.497Z,8.70
2019-04-09T18:30:06.031Z,8.70
2019-04-09T18:32:33.780Z,8.27
2019-04-09T18:35:03.841Z,10.07
2019-04-09T18:37:28.827Z,11.37
2019-04-09T18:39:56.363Z,9.93
2019-04-09T18:42:24.028Z,9.20
2019-04-09T18:44:54.400Z,10.27
2019-04-09T18:47:19.916Z,11.77
2019-04-09T18:49:48.340Z,7.93
2019-04-09T18:52:15.414Z,10.30
2019-04-09T18:54:42.628Z,8.00
2019-04-09T18:57:10.944Z,10.75
2019-04-09T18:59:38.757Z,9.00
2019-04-09T19:02:06.173Z,9.80
2019-04-09T19:04:34.691Z,10.73
2019-04-09T19:07:02.048Z,10.67
2019-04-09T19:09:30.460Z,9.70
2019-04-09T19:11:58.336Z,9.13
2019-04-09T19:14:26.307Z,8.13
2019-04-09T19:16:54.754Z,9.03
2019-04-09T19:19:22.489Z,10.20
2019-04-09T19:21:51.302Z,8.87
2019-04-09T19:24:19.206Z,8.47
2019-04-09T19:26:46.922Z,9.80
2019-04-09T19:29:14.863Z,8.53
2019-04-09T19:31:41.886Z,10.40
2019-04-09T19:34:09.621Z,10.00
2019-04-09T19:36:36.852Z,8.20
2019-04-09T19:39:05.160Z,9.70
2019-04-09T19:41:32.103Z,8.87
2019-04-09T19:44:00.949Z,8.33
2019-04-09T19:46:28.958Z,6.87
2019-04-09T19:48:56.949Z,9.70
2019-04-09T19:51:24.047Z,7.70
2019-04-09T19:53:52.723Z,7.17
2019-04-09T19:56:20.761Z,9.37
2019-04-09T19:58:52.208Z,8.93
2019-04-09T20:01:17.598Z,6.70
2019-04-09T20:03:46.837Z,8.63
2019-04-09T20:06:12.925Z,9.77
2019-04-09T20:08:39.520Z,8.03
2019-04-09T20:11:07.091Z,9.73
2019-04-09T20:13:35.485Z,6.83
2019-04-09T20:16:04.626Z,9.27
2019-04-09T20:18:32.043Z,7.53
2019-04-09T20:21:01.115Z,7.80
2019-04-09T20:23:28.840Z,8.10
2019-04-09T20:25:57.172Z,7.47
2019-04-09T20:28:25.658Z,6.80
2019-04-09T20:30:52.337Z,12.97
2019-04-09T20:33:21.368Z,7.53
2019-04-09T20:35:52.396Z,9.07
2019-04-09T20:38:18.506Z,9.73
2019-04-09T20:40:46.037Z,7.30
2019-04-09T20:43:15.336Z,8.33
2019-04-09T20:45:42.824Z,11.20
2019-04-09T20:48:11.192Z,8.18
2019-04-09T20:50:38.755Z,10.03
2019-04-09T20:53:06.247Z,8.33
2019-04-09T20:55:34.627Z,7.70
2019-04-09T20:58:04.441Z,6.43
2019-04-09T21:03:53.976Z,8.65
2019-04-09T21:06:20.993Z,8.83
2019-04-09T21:08:49.440Z,7.27
2019-04-09T21:11:16.153Z,9.37
2019-04-09T21:13:44.691Z,7.90
2019-04-09T21:16:12.028Z,6.93
2019-04-09T21:18:38.991Z,7.60
2019-04-09T21:21:06.313Z,8.50
2019-04-09T21:23:34.669Z,7.40
2019-04-09T21:26:01.959Z,8.70
2019-04-09T21:28:29.809Z,6.83
2019-04-09T21:30:57.095Z,8.23
2019-04-09T21:33:25.358Z,7.80
2019-04-09T21:36:04.222Z,6.63
2019-04-09T21:38:20.592Z,6.20
2019-04-09T21:40:48.843Z,8.60
2019-04-09T21:43:16.331Z,7.37
2019-04-09T21:45:43.951Z,8.97
2019-04-09T21:48:13.222Z,7.60
2019-04-09T21:50:40.199Z,7.03
2019-04-09T21:53:08.868Z,10.93
2019-04-09T21:55:36.173Z,8.07
2019-04-09T21:58:03.632Z,7.62
2019-04-09T22:00:51.994Z,6.90
2019-04-09T22:03:19.934Z,5.97
2019-04-09T22:05:47.417Z,7.33
2019-04-09T22:08:16.058Z,6.63
2019-04-09T22:10:43.190Z,7.67
2019-04-09T22:13:12.266Z,6.50
2019-04-09T22:15:39.715Z,7.17
2019-04-09T22:18:14.994Z,6.40
2019-04-09T22:20:35.862Z,8.40
2019-04-09T22:23:03.752Z,8.77
2019-04-09T22:25:32.481Z,6.60
2019-04-09T22:27:59.588Z,7.47
2019-04-09T22:30:28.199Z,7.60
2019-04-09T22:33:04.221Z,7.20
2019-04-09T22:35:23.022Z,5.53
2019-04-09T22:37:51.811Z,6.50
2019-04-09T22:40:19.097Z,6.00
2019-04-09T22:42:47.631Z,7.03
2019-04-09T22:45:15.596Z,6.13
2019-04-09T22:47:43.870Z,7.03
2019-04-09T22:50:11.375Z,8.33
2019-04-09T22:52:39.526Z,5.33
2019-04-09T22:55:07.743Z,5.90
2019-04-09T22:57:35.855Z,7.60
2019-04-09T23:00:02.288Z,5.77
2019-04-09T23:02:30.184Z,6.47
2019-04-09T23:04:59.721Z,6.00
2019-04-09T23:07:28.242Z,6.57
2019-04-09T23:09:59.458Z,6.00
2019-04-09T23:12:42.486Z,6.87
2019-04-09T23:15:10.907Z,7.67
2019-04-09T23:17:38.403Z,6.70
2019-04-09T23:20:06.189Z,6.10
2019-04-09T23:22:34.390Z,6.10
2019-04-09T23:25:04.312Z,5.77
2019-04-09T23:27:31.247Z,6.93
2019-04-09T23:29:59.733Z,5.80
2019-04-09T23:32:27.979Z,7.63
2019-04-09T23:34:55.463Z,7.73
2019-04-09T23:37:23.826Z,5.10
2019-04-09T23:39:51.209Z,8.57
2019-04-09T23:42:19.626Z,5.80
2019-04-09T23:44:48.017Z,6.57
2019-04-09T23:47:15.517Z,6.97
2019-04-09T23:49:43.328Z,7.63
2019-04-09T23:52:13.112Z,6.90
2019-04-09T23:54:40.435Z,6.70
2019-04-09T23:57:07.070Z,6.23
2019-04-09T23:59:34.776Z,5.53
